Time;durP1;ratioP1;P1;durP2;ratioP2;P2;SDS_P1;SDS_P2;PMS_P1;PMS_P2;Temp;Humidity;BMP_temperature;BMP_pressure;BME280_temperature;BME280_humidity;BME280_pressure;Samples;Min_cycle;Max_cycle;Signal;HPM_P1;HPM_P2
2022/09/14 00:01:38;;;;;;;7.65;3.72;;;;;;;15.07;100.00;98740.03;1744992;82;20932;-73
2022/09/14 00:04:14;;;;;;;8.28;3.90;;;;;;;15.06;100.00;98737.02;1744868;82;21156;-74
2022/09/14 00:06:43;;;;;;;7.92;3.98;;;;;;;15.08;100.00;98738.06;1723126;82;21473;-74
2022/09/14 00:09:15;;;;;;;4.87;3.80;;;;;;;15.09;100.00;98734.92;1745047;82;20980;-74
2022/09/14 00:11:43;;;;;;;9.13;4.30;;;;;;;15.09;100.00;98727.17;1722451;82;20980;-73
2022/09/14 00:14:15;;;;;;;5.45;3.90;;;;;;;15.06;100.00;98729.31;1721742;82;21111;-73
2022/09/14 00:16:41;;;;;;;7.37;4.25;;;;;;;15.06;100.00;98732.08;1745056;82;21050;-73
2022/09/14 00:19:21;;;;;;;10.03;4.05;;;;;;;15.05;100.00;98735.44;1745158;82;21406;-70
2022/09/14 00:21:56;;;;;;;8.75;3.60;;;;;;;15.03;100.00;98728.06;1745274;82;20890;-69
2022/09/14 00:24:26;;;;;;;6.80;3.80;;;;;;;15.02;100.00;98733.41;1744935;82;20992;-70
2022/09/14 00:26:53;;;;;;;13.83;3.90;;;;;;;15.04;100.00;98726.09;1745019;82;21068;-74
2022/09/14 00:29:20;;;;;;;6.47;4.25;;;;;;;15.03;100.00;98733.61;1744690;81;22210;-69
2022/09/14 00:31:49;;;;;;;5.70;3.60;;;;;;;15.03;100.00;98733.61;1744887;82;20917;-74
2022/09/14 00:34:16;;;;;;;7.22;3.83;;;;;;;15.11;100.00;98730.97;1721894;82;21466;-71
2022/09/14 00:36:46;;;;;;;6.28;4.15;;;;;;;15.13;100.00;98731.41;1744945;82;21029;-74
2022/09/14 00:39:14;;;;;;;6.37;3.92;;;;;;;15.06;100.00;98731.48;1745415;82;20920;-74
2022/09/14 00:41:42;;;;;;;6.15;4.05;;;;;;;15.00;100.00;98735.73;1744851;82;21133;-74
2022/09/14 00:44:17;;;;;;;4.95;3.90;;;;;;;15.07;100.00;98731.71;1745019;82;21532;-71
2022/09/14 00:46:52;;;;;;;8.93;4.05;;;;;;;15.07;100.00;98737.26;1745097;82;20853;-73
2022/09/14 00:49:33;;;;;;;4.95;3.72;;;;;;;15.06;100.00;98732.08;1721984;82;21031;-74
2022/09/14 00:52:26;;;;;;;6.83;3.87;;;;;;;15.06;100.00;98729.31;1745409;82;21547;-69
2022/09/14 00:55:00;;;;;;;10.08;4.00;;;;;;;15.07;100.00;98728.94;1726595;82;21228;-75
2022/09/14 00:57:32;;;;;;;7.75;4.97;;;;;;;15.04;100.00;98728.30;1749875;82;20865;-72
2022/09/14 01:00:00;;;;;;;5.40;3.67;;;;;;;15.03;100.00;98730.83;1727816;82;20975;-71
2022/09/14 01:02:28;;;;;;;5.75;3.60;;;;;;;15.04;100.00;98725.52;1760451;80;21039;-74
2022/09/14 01:04:56;;;;;;;7.80;3.98;;;;;;;15.05;100.00;98731.27;1760334;80;20968;-73
2022/09/14 01:08:04;;;;;;;7.78;3.40;;;;;;;15.04;100.00;98725.52;1760168;81;21110;-70
2022/09/14 01:10:44;;;;;;;5.00;3.40;;;;;;;15.05;100.00;98717.98;1760172;81;21411;-71
2022/09/14 01:13:27;;;;;;;7.12;4.10;;;;;;;15.08;100.00;98722.20;1759975;81;20944;-70
2022/09/14 01:16:25;;;;;;;8.93;3.60;;;;;;;15.09;100.00;98719.66;1760085;81;20971;-72
2022/09/14 01:19:02;;;;;;;5.30;3.70;;;;;;;15.10;100.00;98719.06;1760471;81;20887;-70
2022/09/14 01:21:37;;;;;;;3.20;2.85;;;;;;;15.08;100.00;98722.81;1753459;81;21079;-74
2022/09/14 01:24:29;;;;;;;8.95;3.35;;;;;;;15.07;100.00;98715.06;1760439;81;20943;-73
2022/09/14 01:27:28;;;;;;;5.35;3.67;;;;;;;15.09;100.00;98719.66;1759305;81;21428;-70
2022/09/14 01:30:18;;;;;;;6.50;4.17;;;;;;;15.14;100.00;98714.38;1766429;81;21429;-73
2022/09/14 01:33:02;;;;;;;3.47;3.12;;;;;;;15.18;100.00;98708.90;1756922;81;20908;-73
2022/09/14 01:35:40;;;;;;;10.30;4.92;;;;;;;15.16;100.00;98707.88;1750797;81;21046;-72
2022/09/14 01:38:14;;;;;;;6.72;3.77;;;;;;;15.12;100.00;98713.95;1740969;82;20881;-69
2022/09/14 01:40:49;;;;;;;5.95;3.83;;;;;;;15.11;100.00;98712.94;1774186;80;20975;-74
2022/09/14 01:43:33;;;;;;;9.20;3.83;;;;;;;15.12;100.00;98716.72;1743545;82;20963;-67
2022/09/14 01:46:08;;;;;;;7.95;4.08;;;;;;;15.13;100.00;98713.37;1759913;80;21016;-70
2022/09/14 01:48:53;;;;;;;4.50;3.67;;;;;;;15.12;100.00;98707.02;1743172;82;21118;-72
2022/09/14 01:51:26;;;;;;;7.58;3.85;;;;;;;15.15;100.00;98700.72;1774585;80;20979;-74
2022/09/14 01:53:59;;;;;;;7.10;3.35;;;;;;;15.10;100.00;98699.64;1742010;82;21019;-75
2022/09/14 01:56:31;;;;;;;6.62;3.90;;;;;;;15.11;100.00;98705.42;1774068;80;21007;-77
2022/09/14 01:59:20;;;;;;;4.95;3.55;;;;;;;15.12;100.00;98695.91;1740055;82;21259;-74
2022/09/14 02:01:59;;;;;;;6.53;3.90;;;;;;;15.13;100.00;98692.56;1774239;81;21415;-76
2022/09/14 02:04:37;;;;;;;4.30;3.90;;;;;;;15.13;100.00;98693.95;1743325;82;21405;-70
2022/09/14 02:07:04;;;;;;;5.15;3.35;;;;;;;15.14;100.00;98694.96;1774151;81;20881;-71
2022/09/14 02:09:33;;;;;;;6.10;3.50;;;;;;;15.16;100.00;98691.23;1774229;80;21465;-71
2022/09/14 02:12:01;;;;;;;4.50;4.10;;;;;;;15.16;100.00;98686.27;1774390;80;21000;-72
2022/09/14 02:14:33;;;;;;;4.62;3.92;;;;;;;15.16;100.00;98687.66;1774137;80;21820;-69
2022/09/14 02:16:59;;;;;;;5.85;3.40;;;;;;;15.15;100.00;98684.07;1774134;80;20904;-73
2022/09/14 02:19:32;;;;;;;3.30;2.85;;;;;;;15.17;100.00;98686.47;1774536;81;21478;-74
2022/09/14 02:22:00;;;;;;;5.83;3.75;;;;;;;15.17;100.00;98680.92;1753292;81;21027;-70
2022/09/14 02:24:29;;;;;;;8.48;4.10;;;;;;;15.19;100.00;98686.91;1774193;80;20983;-69
2022/09/14 02:26:59;;;;;;;7.10;3.92;;;;;;;15.19;100.00;98691.88;1774039;80;20993;-73
2022/09/14 02:29:25;;;;;;;5.03;3.92;;;;;;;15.21;100.00;98688.73;1756622;80;21405;-69
2022/09/14 02:32:39;;;;;;;3.87;3.40;;;;;;;15.21;100.00;98692.31;1784220;80;20900;-71
2022/09/14 02:35:33;;;;;;;5.60;3.25;;;;;;;15.23;100.00;98689.16;1784088;80;20904;-73
2022/09/14 02:38:20;;;;;;;6.92;3.70;;;;;;;15.24;100.00;98683.01;1784021;80;20920;-72
2022/09/14 02:40:58;;;;;;;8.90;3.62;;;;;;;15.23;100.00;98680.84;1757892;80;21203;-72
2022/09/14 02:43:48;;;;;;;3.47;3.17;;;;;;;15.21;100.00;98678.44;1784217;80;20833;-71
2022/09/14 02:46:56;;;;;;;10.43;2.92;;;;;;;15.21;100.00;98684.56;1721397;83;21009;-73
2022/09/14 02:49:40;;;;;;;6.87;2.92;;;;;;;15.20;100.00;98674.63;1756833;81;21083;-74
2022/09/14 02:52:24;;;;;;;5.87;3.50;;;;;;;15.18;100.00;98673.61;1756480;81;20956;-73
2022/09/14 02:55:03;;;;;;;3.83;3.25;;;;;;;15.19;100.00;98673.03;1755009;81;21227;-76
2022/09/14 02:57:32;;;;;;;4.53;3.37;;;;;;;15.14;100.00;98670.57;1753238;81;20967;-74
2022/09/14 03:00:01;;;;;;;3.62;3.00;;;;;;;15.12;100.00;98673.72;1751556;81;21524;-74
2022/09/14 03:02:30;;;;;;;3.30;2.80;;;;;;;15.15;100.00;98673.58;1784200;80;20947;-71
2022/09/14 03:04:58;;;;;;;4.12;3.02;;;;;;;15.14;100.00;98670.00;1752123;82;20876;-72
2022/09/14 03:07:26;;;;;;;6.25;3.20;;;;;;;15.15;100.00;98668.81;1756886;81;21096;-74
2022/09/14 03:09:52;;;;;;;5.33;3.40;;;;;;;15.14;100.00;98670.00;1731656;81;20928;-71
2022/09/14 03:12:19;;;;;;;7.55;2.95;;;;;;;15.15;100.00;98674.36;1756669;81;21234;-74
2022/09/14 03:14:45;;;;;;;4.20;3.30;;;;;;;15.16;100.00;98676.56;1756670;81;20937;-75
2022/09/14 03:17:13;;;;;;;8.13;2.90;;;;;;;15.15;100.00;98672.19;1751650;82;20964;-73
2022/09/14 03:19:41;;;;;;;5.62;3.00;;;;;;;15.11;100.00;98667.16;1784347;80;21167;-75
2022/09/14 03:22:08;;;;;;;3.45;2.92;;;;;;;15.10;100.00;98674.67;1752004;82;20963;-71
2022/09/14 03:24:38;;;;;;;4.70;3.37;;;;;;;15.09;100.00;98668.92;1751741;82;21396;-72
2022/09/14 03:27:04;;;;;;;5.12;3.10;;;;;;;15.08;100.00;98666.73;1752251;82;20984;-68
2022/09/14 03:29:32;;;;;;;4.75;3.10;;;;;;;15.09;100.00;98667.53;1748865;81;21630;-70
2022/09/14 03:32:02;;;;;;;4.47;3.12;;;;;;;15.07;100.00;98666.52;1742169;82;21469;-74
2022/09/14 03:34:29;;;;;;;4.28;2.98;;;;;;;15.05;100.00;98663.31;1741937;82;20957;-73
2022/09/14 03:36:55;;;;;;;4.65;3.30;;;;;;;15.04;100.00;98660.34;1742020;82;20987;-74
2022/09/14 03:39:26;;;;;;;7.10;3.45;;;;;;;15.04;100.00;98660.91;1742285;82;20953;-74
2022/09/14 03:41:55;;;;;;;4.33;3.22;;;;;;;15.05;100.00;98655.56;1742143;82;21000;-72
2022/09/14 03:44:23;;;;;;;4.60;2.95;;;;;;;15.03;100.00;98667.64;1742027;82;21206;-73
2022/09/14 03:46:49;;;;;;;4.03;3.17;;;;;;;15.01;100.00;98673.53;1742043;82;21501;-70
2022/09/14 03:49:17;;;;;;;3.85;2.72;;;;;;;15.02;100.00;98667.41;1742016;82;20955;-73
2022/09/14 03:51:43;;;;;;;5.12;2.75;;;;;;;15.02;100.00;98670.99;1741910;82;21462;-72
2022/09/14 03:54:12;;;;;;;2.85;2.42;;;;;;;15.04;100.00;98669.23;1741926;82;20936;-71
2022/09/14 03:56:39;;;;;;;6.47;2.70;;;;;;;15.04;100.00;98666.46;1742094;82;21402;-71
2022/09/14 03:59:09;;;;;;;4.72;2.37;;;;;;;15.05;100.00;98669.44;1742019;82;21422;-72
2022/09/14 04:01:37;;;;;;;2.70;2.27;;;;;;;15.00;100.00;98677.48;1742276;82;20865;-68
2022/09/14 04:04:06;;;;;;;3.58;2.62;;;;;;;14.99;100.00;98668.97;1741968;82;21016;-71
2022/09/14 04:06:34;;;;;;;8.58;2.33;;;;;;;15.01;100.00;98667.98;1741985;82;20941;-71
2022/09/14 04:09:03;;;;;;;3.08;2.75;;;;;;;15.05;100.00;98664.70;1742137;82;20930;-71
2022/09/14 04:11:30;;;;;;;6.05;2.60;;;;;;;15.09;100.00;98669.73;1752546;79;20999;-67
2022/09/14 04:14:01;;;;;;;3.05;2.70;;;;;;;15.13;100.00;98678.69;1743619;81;20924;-73
2022/09/14 04:16:30;;;;;;;6.17;2.90;;;;;;;15.13;100.00;98676.70;1774308;81;20952;-65
2022/09/14 04:18:58;;;;;;;2.80;2.47;;;;;;;15.13;100.00;98679.47;1743670;82;20845;-69
2022/09/14 04:21:24;;;;;;;3.47;2.42;;;;;;;15.15;100.00;98686.84;1774429;81;21870;-73
2022/09/14 04:23:55;;;;;;;6.60;3.35;;;;;;;15.20;100.00;98686.53;1743511;82;20928;-69
2022/09/14 04:26:26;;;;;;;4.15;2.77;;;;;;;15.21;100.00;98688.73;1774720;80;20956;-69
2022/09/14 04:28:54;;;;;;;4.45;3.02;;;;;;;15.23;100.00;98686.97;1743541;82;21052;-72
2022/09/14 04:31:23;;;;;;;7.20;3.12;;;;;;;15.20;100.00;98688.50;1774375;80;21516;-73
2022/09/14 04:33:50;;;;;;;4.17;3.15;;;;;;;15.20;100.00;98693.47;1743528;82;21133;-73
2022/09/14 04:36:19;;;;;;;3.12;2.83;;;;;;;15.20;100.00;98691.27;1774256;81;20963;-73
2022/09/14 04:38:46;;;;;;;3.75;2.83;;;;;;;15.20;100.00;98686.53;1743846;81;20956;-73
2022/09/14 04:41:19;;;;;;;3.33;2.83;;;;;;;15.18;100.00;98683.32;1774385;80;21032;-73
2022/09/14 04:43:46;;;;;;;2.97;2.67;;;;;;;15.21;100.00;98685.95;1742500;82;20920;-73
2022/09/14 04:46:17;;;;;;;4.35;2.80;;;;;;;15.23;100.00;98684.19;1742160;82;21135;-69
2022/09/14 04:48:49;;;;;;;3.42;2.67;;;;;;;15.21;100.00;98684.56;1742062;82;20989;-73
2022/09/14 04:51:20;;;;;;;3.00;2.70;;;;;;;15.20;100.00;98688.50;1741991;82;20826;-73
2022/09/14 04:53:49;;;;;;;4.40;2.65;;;;;;;15.14;100.00;98680.28;1742208;82;21473;-72
2022/09/14 04:56:19;;;;;;;6.33;3.20;;;;;;;15.14;100.00;98682.48;1742079;82;20940;-74
2022/09/14 04:58:48;;;;;;;2.95;2.55;;;;;;;15.16;100.00;98681.53;1753129;81;21544;-74
2022/09/14 05:01:21;;;;;;;4.17;2.42;;;;;;;15.18;100.00;98683.93;1742121;82;21434;-74
2022/09/14 05:03:52;;;;;;;4.37;2.75;;;;;;;15.20;100.00;98691.27;1742015;82;20881;-72
2022/09/14 05:06:23;;;;;;;2.87;2.62;;;;;;;15.20;100.00;98691.27;1741948;82;21552;-68
2022/09/14 05:08:51;;;;;;;5.05;2.58;;;;;;;15.20;100.00;98691.27;1741948;82;21026;-69
2022/09/14 05:11:20;;;;;;;7.60;3.22;;;;;;;15.20;100.00;98686.53;1742097;82;21017;-72
2022/09/14 05:13:49;;;;;;;4.75;3.25;;;;;;;15.20;100.00;98683.76;1741993;82;20937;-71
2022/09/14 05:16:25;;;;;;;3.20;2.72;;;;;;;15.23;100.00;98687.78;1774383;81;20992;-73
2022/09/14 05:18:54;;;;;;;5.85;3.35;;;;;;;15.24;100.00;98693.53;1773529;80;20916;-72
2022/09/14 05:21:22;;;;;;;3.98;2.90;;;;;;;15.27;100.00;98699.72;1742381;82;21568;-69
2022/09/14 05:23:55;;;;;;;3.40;2.87;;;;;;;15.30;100.00;98701.74;1741938;82;21781;-71
2022/09/14 05:26:25;;;;;;;8.63;3.08;;;;;;;15.36;100.00;98709.18;1741878;82;20972;-70
2022/09/14 05:28:56;;;;;;;3.05;2.58;;;;;;;15.45;100.00;98700.02;1742180;82;20997;-76
2022/09/14 05:31:25;;;;;;;4.75;2.87;;;;;;;15.51;100.00;98700.48;1753038;81;21512;-72
2022/09/14 05:33:57;;;;;;;8.23;4.00;;;;;;;15.57;100.00;98703.13;1743515;82;20983;-71
2022/09/14 05:36:25;;;;;;;4.65;3.70;;;;;;;15.59;100.00;98701.41;1774338;81;21132;-74
2022/09/14 05:38:52;;;;;;;5.97;2.60;;;;;;;15.53;100.00;98698.14;1774103;81;20968;-72
2022/09/14 05:41:18;;;;;;;8.68;3.52;;;;;;;15.51;100.00;98695.50;1774382;81;20861;-73
2022/09/14 05:43:47;;;;;;;4.45;3.05;;;;;;;15.53;100.00;98698.71;1774294;81;20893;-73
2022/09/14 05:46:21;;;;;;;2.87;2.67;;;;;;;15.55;100.00;98694.98;1774237;80;20861;-74
2022/09/14 05:48:50;;;;;;;3.40;2.67;;;;;;;15.52;100.00;98692.95;1774773;80;21064;-74
2022/09/14 05:51:22;;;;;;;3.92;2.60;;;;;;;15.53;100.00;98692.58;1774268;81;20933;-75
2022/09/14 05:53:55;;;;;;;2.77;2.47;;;;;;;15.58;100.00;98694.23;1774542;80;20873;-75
2022/09/14 05:56:24;;;;;;;4.58;3.45;;;;;;;15.66;100.00;98695.16;1774392;80;20912;-71
2022/09/14 05:58:52;;;;;;;5.65;2.80;;;;;;;15.76;100.00;98693.69;1774187;81;21485;-74
2022/09/14 06:01:27;;;;;;;4.72;3.37;;;;;;;15.85;100.00;98689.25;1774369;80;21113;-75
2022/09/14 06:03:56;;;;;;;4.22;2.52;;;;;;;15.91;100.00;98687.73;1773891;81;20941;-70
2022/09/14 06:06:25;;;;;;;5.47;3.02;;;;;;;15.99;100.00;98686.69;1774491;80;20944;-73
2022/09/14 06:08:55;;;;;;;3.50;3.00;;;;;;;16.05;100.00;98681.61;1774131;80;21473;-74
2022/09/14 06:11:25;;;;;;;4.15;2.83;;;;;;;16.02;100.00;98680.98;1774170;80;21028;-71
2022/09/14 06:13:53;;;;;;;6.67;3.33;;;;;;;16.04;100.00;98679.98;1752593;81;21110;-73
2022/09/14 06:16:24;;;;;;;5.37;3.30;;;;;;;16.08;100.00;98674.48;1741826;82;21035;-69
2022/09/14 06:18:54;;;;;;;6.33;2.60;;;;;;;16.11;100.00;98673.14;1742033;82;21532;-69
2022/09/14 06:21:25;;;;;;;3.00;2.70;;;;;;;16.09;100.00;98670.54;1741905;82;20957;-72
2022/09/14 06:23:56;;;;;;;4.70;2.98;;;;;;;16.08;100.00;98671.12;1742053;82;21004;-74
2022/09/14 06:26:24;;;;;;;6.08;2.75;;;;;;;16.08;100.00;98675.86;1752866;81;21106;-72
2022/09/14 06:28:52;;;;;;;2.67;2.47;;;;;;;16.06;100.00;98674.28;1743473;82;21038;-74
2022/09/14 06:31:21;;;;;;;3.83;2.90;;;;;;;16.09;100.00;98673.31;1783298;80;20925;-73
2022/09/14 06:33:49;;;;;;;4.40;2.92;;;;;;;16.18;100.00;98680.17;1753284;81;20896;-70
2022/09/14 06:36:23;;;;;;;5.53;3.27;;;;;;;16.26;100.00;98681.05;1752266;82;20900;-73
2022/09/14 06:38:50;;;;;;;4.15;2.80;;;;;;;16.30;100.00;98679.70;1756737;81;21759;-70
2022/09/14 06:41:21;;;;;;;3.85;3.05;;;;;;;16.35;100.00;98677.98;1756990;81;20975;-74
2022/09/14 06:43:55;;;;;;;3.00;2.80;;;;;;;16.33;100.00;98667.82;1728512;81;20927;-74
2022/09/14 06:46:29;;;;;;;4.33;3.05;;;;;;;16.38;100.00;98667.48;1685949;81;21015;-72
2022/09/14 06:49:06;;;;;;;4.12;2.70;;;;;;;16.38;100.00;98666.09;1757010;81;20896;-69
2022/09/14 06:51:42;;;;;;;4.67;2.30;;;;;;;16.39;100.00;98664.12;1784301;80;20900;-75
2022/09/14 06:54:14;;;;;;;5.62;2.67;;;;;;;16.41;100.00;98662.55;1751931;82;20907;-72
2022/09/14 06:56:42;;;;;;;4.45;2.95;;;;;;;16.39;100.00;98659.95;1756670;81;20979;-76
2022/09/14 06:59:14;;;;;;;4.22;3.00;;;;;;;16.43;100.00;98653.83;1756663;81;21465;-74
2022/09/14 07:02:01;;;;;;;;;;;;;;;;;;;;;
2022/09/14 07:04:17;;;;;;;3.60;2.75;;;;;;;16.45;100.00;98647.30;1748426;82;21205;-74
2022/09/14 07:06:49;;;;;;;6.60;3.33;;;;;;;16.49;100.00;98650.92;1751601;82;21473;-71
2022/09/14 07:09:20;;;;;;;4.22;3.40;;;;;;;16.54;100.00;98649.77;1749412;82;20944;-75
2022/09/14 07:11:46;;;;;;;6.53;3.30;;;;;;;16.59;100.00;98647.23;1731368;81;20964;-74
2022/09/14 07:14:19;;;;;;;6.90;2.95;;;;;;;16.65;100.00;98647.11;1751742;82;20920;-75
2022/09/14 07:16:50;;;;;;;3.02;2.72;;;;;;;16.71;100.00;98646.95;1751664;82;21777;-76
2022/09/14 07:19:16;;;;;;;6.10;2.80;;;;;;;16.73;100.00;98641.81;1751387;82;20968;-71
2022/09/14 07:21:44;;;;;;;2.50;2.12;;;;;;;16.82;100.00;98636.52;1751745;82;20998;-74
2022/09/14 07:24:16;;;;;;;3.25;2.15;;;;;;;16.88;100.00;98634.98;1783916;80;20892;-74
2022/09/14 07:26:44;;;;;;;3.00;1.92;;;;;;;16.91;100.00;98635.59;1752538;82;20895;-73
2022/09/14 07:29:18;;;;;;;3.55;2.27;;;;;;;16.94;100.00;98624.30;1756699;81;22029;-73
2022/09/14 07:31:51;;;;;;;2.83;2.22;;;;;;;16.96;100.00;98628.86;1751591;82;20941;-75
2022/09/14 07:34:18;;;;;;;4.72;1.87;;;;;;;17.03;100.00;98618.61;1752446;82;20919;-75
2022/09/14 07:36:47;;;;;;;3.85;1.98;;;;;;;17.13;100.00;98618.50;1756552;81;21405;-74
2022/09/14 07:39:17;;;;;;;3.27;2.47;;;;;;;17.23;100.00;98622.54;1756842;81;21439;-72
2022/09/14 07:41:46;;;;;;;6.35;1.65;;;;;;;17.33;100.00;98618.84;1756939;81;21165;-71
2022/09/14 07:44:15;;;;;;;3.70;2.30;;;;;;;17.45;100.00;98623.28;1751582;82;20952;-70
2022/09/14 07:46:43;;;;;;;3.02;2.10;;;;;;;17.51;100.00;98625.31;1726902;82;20995;-75
2022/09/14 07:49:12;;;;;;;2.15;1.90;;;;;;;17.61;100.00;98622.37;1756740;81;20974;-75
2022/09/14 07:51:41;;;;;;;2.85;1.85;;;;;;;17.71;100.00;98621.41;1756863;81;21243;-74
2022/09/14 07:54:11;;;;;;;3.60;1.67;;;;;;;17.79;100.00;98614.70;1731457;81;21156;-76
2022/09/14 07:56:39;;;;;;;2.22;1.80;;;;;;;17.85;100.00;98603.96;1731472;81;20964;-74
2022/09/14 07:59:05;;;;;;;2.00;1.62;;;;;;;17.88;100.00;98599.80;1756667;81;20996;-69
2022/09/14 08:01:33;;;;;;;2.22;1.47;;;;;;;17.92;100.00;98604.58;1756777;81;21444;-73
2022/09/14 08:04:03;;;;;;;3.92;2.00;;;;;;;17.98;100.00;98599.63;1756694;81;20990;-76
2022/09/14 08:06:30;;;;;;;5.55;1.82;;;;;;;18.00;100.00;98596.45;1751560;82;22083;-72
2022/09/14 08:09:02;;;;;;;1.85;1.40;;;;;;;18.01;100.00;98588.31;1751718;82;21015;-75
2022/09/14 08:11:34;;;;;;;2.98;1.57;;;;;;;18.03;100.00;98587.91;1784258;79;21000;-75
2022/09/14 08:14:08;;;;;;;2.55;1.70;;;;;;;18.09;100.00;98584.94;1752221;82;21015;-77
2022/09/14 08:16:34;;;;;;;2.83;1.95;;;;;;;18.15;100.00;98586.16;1757058;81;21495;-74
2022/09/14 08:19:02;;;;;;;1.72;1.62;;;;;;;18.24;100.00;98596.94;1756694;81;21527;-72
2022/09/14 08:21:31;;;;;;;4.28;1.65;;;;;;;18.27;100.00;98589.80;1756814;81;20893;-74
2022/09/14 08:24:03;;;;;;;3.55;1.75;;;;;;;18.30;100.00;98585.63;1756717;81;20995;-74
2022/09/14 08:26:30;;;;;;;2.15;1.30;;;;;;;18.34;100.00;98587.00;1756616;81;21120;-69
2022/09/14 08:28:59;;;;;;;1.87;1.57;;;;;;;18.37;100.00;98582.05;1756780;81;20856;-74
2022/09/14 08:31:26;;;;;;;4.60;1.50;;;;;;;18.41;100.00;98567.50;1744985;82;21871;-71
2022/09/14 08:33:57;;;;;;;3.67;1.25;;;;;;;18.47;100.00;98568.72;1742314;82;21483;-75
2022/09/14 08:36:27;;;;;;;3.45;1.95;;;;;;;18.52;100.00;98560.55;1741650;82;20989;-74
2022/09/14 08:38:55;;;;;;;2.85;1.80;;;;;;;18.56;100.00;98571.70;1742048;82;20989;-70
2022/09/14 08:41:55;;;;;;;1.60;1.50;;;;;;;18.56;100.00;98565.51;1742136;82;20984;-73
2022/09/14 08:44:44;;;;;;;1.50;1.30;;;;;;;18.58;100.00;98570.69;1682567;82;21171;-75
2022/09/14 08:47:22;;;;;;;2.02;1.50;;;;;;;18.56;100.00;98575.89;1741534;82;20956;-73
2022/09/14 08:50:11;;;;;;;2.67;1.70;;;;;;;18.52;100.00;98570.30;1771386;81;20948;-69
2022/09/14 08:52:45;;;;;;;2.25;1.57;;;;;;;18.52;100.00;98575.08;1723742;82;21410;-74
2022/09/14 08:55:47;;;;;;;1.35;1.25;;;;;;;18.47;100.00;98568.72;1774273;81;21513;-74
2022/09/14 08:58:51;;;;;;;2.17;1.20;;;;;;;18.45;100.00;98561.34;1774552;80;21588;-75
2022/09/14 09:01:47;;;;;;;1.50;1.40;;;;;;;18.43;100.00;98555.36;1774273;80;20969;-75
2022/09/14 09:05:03;;;;;;;4.30;1.40;;;;;;;18.41;100.00;98555.56;1753034;80;20982;-73
2022/09/14 09:08:15;;;;;;;5.80;1.20;;;;;;;18.35;100.00;98544.80;1774011;80;20932;-75
2022/09/14 09:10:41;;;;;;;1.55;1.30;;;;;;;18.35;100.00;98546.20;1774094;80;21480;-75
2022/09/14 09:13:12;;;;;;;1.42;1.10;;;;;;;18.31;100.00;98545.39;1774258;81;21251;-75
2022/09/14 09:15:50;;;;;;;2.27;1.77;;;;;;;18.30;100.00;98549.97;1774314;81;20921;-70
2022/09/14 09:18:42;;;;;;;3.42;2.22;;;;;;;18.20;100.00;98550.94;1774219;80;20981;-76
2022/09/14 09:21:22;;;;;;;6.85;1.57;;;;;;;18.09;100.00;98553.69;1774658;80;20845;-73
2022/09/14 09:23:50;;;;;;;7.33;2.42;;;;;;;17.99;100.00;98562.23;1753018;81;21012;-75
2022/09/14 09:26:29;;;;;;;5.58;2.25;;;;;;;18.04;100.00;98556.05;1774604;80;21712;-75
2022/09/14 09:29:00;;;;;;;5.87;1.92;;;;;;;17.99;100.00;98552.48;1774223;80;20900;-77
2022/09/14 09:31:37;;;;;;;3.92;1.70;;;;;;;17.92;100.00;98555.83;1774288;80;20997;-73
2022/09/14 09:34:18;;;;;;;3.85;1.62;;;;;;;17.86;100.00;98561.78;1773796;80;20961;-74
2022/09/14 09:36:47;;;;;;;2.27;1.92;;;;;;;17.82;100.00;98566.55;1774705;80;21031;-74
2022/09/14 09:39:14;;;;;;;2.60;1.72;;;;;;;17.76;100.00;98567.52;1774199;81;21254;-73
2022/09/14 09:41:55;;;;;;;4.90;2.02;;;;;;;17.70;100.00;98569.10;1774282;81;20905;-75
2022/09/14 09:44:23;;;;;;;2.98;2.30;;;;;;;17.63;100.00;98567.09;1773325;80;20964;-72
2022/09/14 09:47:01;;;;;;;2.33;2.12;;;;;;;17.63;100.00;98563.49;1774294;80;20940;-75
2022/09/14 09:49:35;;;;;;;3.27;2.08;;;;;;;17.66;100.00;98567.50;1753263;81;20941;-72
2022/09/14 09:52:15;;;;;;;5.83;1.75;;;;;;;17.71;100.00;98564.30;1773809;81;21004;-70
2022/09/14 09:54:51;;;;;;;3.58;1.85;;;;;;;17.68;100.00;98561.73;1774206;80;20952;-75
2022/09/14 09:57:34;;;;;;;2.70;2.00;;;;;;;17.70;100.00;98555.76;1774163;80;20934;-74
2022/09/14 10:00:23;;;;;;;4.17;2.33;;;;;;;17.71;100.00;98548.41;1774186;81;21027;-72
2022/09/14 10:02:56;;;;;;;7.15;2.40;;;;;;;17.81;100.00;98548.84;1774249;80;20905;-72
2022/09/14 10:05:27;;;;;;;4.75;2.12;;;;;;;17.82;100.00;98551.23;1774280;80;21768;-74
2022/09/14 10:08:00;;;;;;;2.27;2.05;;;;;;;17.85;100.00;98554.63;1774330;80;20905;-74
2022/09/14 10:10:45;;;;;;;4.20;2.50;;;;;;;17.86;100.00;98556.20;1774315;80;21398;-72
2022/09/14 10:13:31;;;;;;;2.67;2.27;;;;;;;17.88;100.00;98551.63;1774152;80;21011;-73
2022/09/14 10:16:15;;;;;;;3.92;2.15;;;;;;;17.90;100.00;98549.26;1773845;80;20901;-73
2022/09/14 10:18:45;;;;;;;3.40;2.50;;;;;;;17.90;100.00;98547.86;1774526;80;21873;-78
2022/09/14 10:21:19;;;;;;;3.70;2.35;;;;;;;17.95;100.00;98553.05;1774096;80;21036;-74
2022/09/14 10:23:47;;;;;;;5.15;2.45;;;;;;;18.01;100.00;98555.65;1774186;80;20933;-75
2022/09/14 10:26:18;;;;;;;3.50;2.72;;;;;;;18.01;100.00;98554.25;1729170;81;37592;-75
2022/09/14 10:28:50;;;;;;;5.67;2.50;;;;;;;18.04;100.00;98544.32;1774171;81;21527;-75
2022/09/14 10:31:29;;;;;;;2.80;2.50;;;;;;;18.13;100.00;98543.36;1774219;80;21282;-76
2022/09/14 10:33:58;;;;;;;6.17;2.45;;;;;;;18.12;100.00;98545.13;1774126;81;20856;-66
2022/09/14 10:36:32;;;;;;;3.83;3.00;;;;;;;18.16;100.00;98547.36;1774290;80;21004;-73
2022/09/14 10:39:19;;;;;;;8.50;3.05;;;;;;;18.24;100.00;98550.36;1773999;80;20846;-70
2022/09/14 10:42:01;;;;;;;4.08;3.02;;;;;;;18.24;100.00;98544.78;1774325;80;20893;-72
2022/09/14 10:44:33;;;;;;;6.10;2.90;;;;;;;18.28;100.00;98553.16;1760938;80;21117;-75
2022/09/14 10:47:37;;;;;;;6.30;3.30;;;;;;;18.30;100.00;98548.57;1774067;80;21013;-74
2022/09/14 10:50:27;;;;;;;4.15;3.08;;;;;;;18.29;100.00;98543.59;1774641;81;20948;-75
2022/09/14 10:53:53;;;;;;;4.50;3.40;;;;;;;18.32;100.00;98539.22;1774059;80;21020;-76
2022/09/14 10:56:46;;;;;;;5.58;3.95;;;;;;;18.33;100.00;98542.20;1774244;81;20965;-74
2022/09/14 10:59:44;;;;;;;9.10;5.15;;;;;;;18.36;100.00;98545.58;1773619;80;21090;-75
2022/09/14 11:02:34;;;;;;;9.50;3.65;;;;;;;18.33;100.00;98547.19;1774267;80;21572;-74
2022/09/14 11:05:35;;;;;;;10.63;4.75;;;;;;;18.35;100.00;98548.98;1774411;80;21004;-74
2022/09/14 11:08:37;;;;;;;6.00;4.22;;;;;;;18.36;100.00;98541.40;1773787;80;20960;-76
2022/09/14 11:11:22;;;;;;;10.28;4.45;;;;;;;18.36;100.00;98539.42;1774416;81;21064;-76
2022/09/14 11:14:15;;;;;;;5.90;4.22;;;;;;;18.44;100.00;98542.22;1774434;80;21717;-74
2022/09/14 11:17:21;;;;;;;5.20;3.80;;;;;;;18.43;100.00;98538.63;1774271;80;20970;-73
2022/09/14 11:20:20;;;;;;;8.95;3.58;;;;;;;18.47;100.00;98540.02;1774314;80;21408;-72
2022/09/14 11:23:09;;;;;;;5.00;3.80;;;;;;;18.53;100.00;98539.01;1774065;80;21482;-70
2022/09/14 11:26:05;;;;;;;5.00;4.50;;;;;;;18.58;100.00;98541.41;1774505;80;20888;-72
2022/09/14 11:28:43;;;;;;;5.90;4.30;;;;;;;18.58;100.00;98535.23;1774087;80;21040;-76
2022/09/14 11:31:18;;;;;;;7.47;4.20;;;;;;;18.57;100.00;98537.84;1774533;80;20957;-74
2022/09/14 11:34:17;;;;;;;9.20;4.42;;;;;;;18.33;100.00;98539.41;1771735;80;20956;-72
2022/09/14 11:36:58;;;;;;;9.68;6.33;;;;;;;18.51;100.00;98544.21;1759299;80;20925;-73
2022/09/14 11:39:30;;;;;;;9.60;6.15;;;;;;;18.53;100.00;98541.80;1774308;80;20908;-73
2022/09/14 11:42:23;;;;;;;6.83;5.03;;;;;;;18.47;100.00;98540.83;1774635;80;21155;-75
2022/09/14 11:45:00;;;;;;;8.53;4.83;;;;;;;18.29;100.00;98548.38;1740502;80;20933;-75
2022/09/14 11:47:34;;;;;;;6.67;4.85;;;;;;;18.44;100.00;98545.78;1774650;80;20865;-76
2022/09/14 11:50:06;;;;;;;6.28;4.70;;;;;;;18.15;100.00;98545.75;1774299;80;20948;-73
2022/09/14 11:52:35;;;;;;;6.83;5.03;;;;;;;18.31;100.00;98547.37;1767486;81;20988;-72
2022/09/14 11:55:02;;;;;;;9.08;5.83;;;;;;;18.17;100.00;98546.77;1753026;81;22047;-70
2022/09/14 11:57:32;;;;;;;6.42;4.97;;;;;;;18.12;100.00;98543.73;1752683;81;20877;-75
2022/09/14 12:00:06;;;;;;;8.23;5.08;;;;;;;18.16;100.00;98550.15;1774557;80;20960;-75
2022/09/14 12:02:44;;;;;;;9.75;6.03;;;;;;;18.28;100.00;98550.95;1767860;81;20901;-73